Monday, April 24, 2017, 10:48 PM EDT

KLNS, Lancaster Airport

Location: Lititz, PA, United States Lat: 40.117
Local Time: 10:48 PM EDT ( 2:48 GMT) Lon: -76.3
Time Zone: US/Eastern Elev: 403 ft

Show me the last for .
Show Decoded

2017-04-24 21:53 METAR KLNS 250153Z 09009KT 10SM OVC048 12/04 A3007 RMK AO2 SLP181 T01220044 =
2017-04-24 20:53 METAR KLNS 250053Z 09007KT 10SM OVC055 12/06 A3007 RMK AO2 RAB24E46 SLP183 P0000
                 T01170061 =
2017-04-24 19:53 METAR KLNS 242353Z 11005KT 10SM OVC050 12/09 A3006 RMK AO2 RAB2255E09 SLP181
                 P0000 60000 T01220089 10150 20122 50000 =
2017-04-24 18:53 METAR KLNS 242253Z 08003KT 10SM OVC060 13/09 A3007 RMK AO2 SLP184 T01280089 =
2017-04-24 17:53 METAR KLNS 242153Z 07009KT 10SM OVC060 13/08 A3007 RMK AO2 RAE08 SLP182 P0000
                 T01330078 =
2017-04-24 16:53 METAR KLNS 242053Z 06012KT 10SM -RA OVC060 14/07 A3006 RMK AO2 RAB29 SLP181
                 P0000 60000 T01390072 58011 =
2017-04-24 15:53 METAR KLNS 241953Z 06008KT 10SM OVC065 15/08 A3008 RMK AO2 SLP185 T01500083 =
2017-04-24 14:53 METAR KLNS 241853Z 08009KT 10SM BKN075 BKN090 15/08 A3010 RMK AO2 RAE1759 SLP191
                 P0000 T01500078 =
2017-04-24 13:53 METAR KLNS 241753Z 09006KT 10SM -RA OVC075 14/09 A3010 RMK AO2 SLP192 P0000
                 60000 T01390089 10144 20100 58013 =
2017-04-24 12:53 METAR KLNS 241653Z 08008KT 10SM -RA OVC085 14/08 A3011 RMK AO2 RAB41 SLP196
                 P0000 T01390078 =
2017-04-24 11:53 METAR KLNS 241553Z 07005KT 10SM OVC085 13/09 A3013 RMK AO2 RAE1458 SLP202 P0000
                 T01330094 =
2017-04-24 10:53 METAR KLNS 241453Z 09005KT 10SM -RA OVC095 13/09 A3014 RMK AO2 RAB47 SLP205
                 P0000 60000 T01280089 51004 =
2017-04-24 09:53 METAR KLNS 241353Z 09006KT 10SM BKN075 OVC100 12/09 A3013 RMK AO2 SLP203
                 T01220089 =
2017-04-24 08:53 METAR KLNS 241253Z 07003KT 9SM FEW080 OVC100 11/09 A3013 RMK AO2 SLP204
                 T01110094 =
2017-04-24 07:53 METAR KLNS 241153Z 09003KT 7SM OVC110 10/09 A3012 RMK AO2 SLP201 T01000094 10100
                 20083 53010 =
2017-04-24 06:53 METAR KLNS 241053Z 02004KT 7SM OVC120 09/09 A3011 RMK AO2 SLP197 T00940089 =
2017-04-24 05:58 METAR KLNS 240958Z 00000KT 9SM SCT120 09/08 A3010 RMK AO2 T00890083 =
2017-04-24 05:53 METAR KLNS 240953Z AUTO 00000KT 9SM BKN120 09/08 A3010 RMK AO2 SLP194 T00890083
                 TSNO =
2017-04-24 04:53 METAR KLNS 240853Z AUTO 00000KT 9SM BKN120 09/08 A3009 RMK AO2 SLP190 T00890083
                 55001 TSNO =
2017-04-24 03:53 METAR KLNS 240753Z AUTO 00000KT 9SM CLR 09/08 A3008 RMK AO2 SLP187 T00890083
                 TSNO =
2017-04-24 02:53 METAR KLNS 240653Z AUTO 09003KT 10SM CLR 09/08 A3009 RMK AO2 SLP188 T00890083
                 TSNO =
2017-04-24 01:53 METAR KLNS 240553Z AUTO 09003KT 10SM CLR 08/07 A3010 RMK AO2 SLP191 T00830072
                 10156 20083 58004 TSNO =
2017-04-24 00:53 METAR KLNS 240453Z AUTO 08003KT 10SM CLR 09/07 A3010 RMK AO2 SLP193 T00890067
                 401780033 TSNO =
2017-04-23 23:53 METAR KLNS 240353Z AUTO 07003KT 10SM CLR 10/07 A3011 RMK AO2 SLP196 T01000072
                 TSNO =
2017-04-23 22:53 METAR KLNS 240253Z 00000KT 10SM CLR 12/08 A3011 RMK AO2 SLP195 T01170078 51013 =

Support USWX by starting your Amazon purchase here.